sensor_id;sensor_type;location;lat;lon;timestamp;pressure;altitude;pressure_sealevel;temperature;humidity
62150;BME280;48134;53.586;10.610;2022-08-21T00:01:24;101005.91;;;14.38;100.00
62150;BME280;48134;53.586;10.610;2022-08-21T00:04:04;101013.03;;;14.39;100.00
62150;BME280;48134;53.586;10.610;2022-08-21T00:06:39;101023.25;;;14.34;100.00
62150;BME280;48134;53.586;10.610;2022-08-21T00:09:08;101007.19;;;14.27;100.00
62150;BME280;48134;53.586;10.610;2022-08-21T00:11:42;101005.19;;;14.33;100.00
62150;BME280;48134;53.586;10.610;2022-08-21T00:14:15;101005.41;;;14.36;100.00
62150;BME280;48134;53.586;10.610;2022-08-21T00:16:49;101013.09;;;14.34;100.00
62150;BME280;48134;53.586;10.610;2022-08-21T00:19:22;101009.63;;;14.28;100.00
62150;BME280;48134;53.586;10.610;2022-08-21T00:21:58;101007.69;;;14.29;100.00
62150;BME280;48134;53.586;10.610;2022-08-21T00:24:26;100976.03;;;14.04;100.00
62150;BME280;48134;53.586;10.610;2022-08-21T00:26:59;101000.81;;;14.12;100.00
62150;BME280;48134;53.586;10.610;2022-08-21T00:29:33;100997.69;;;14.00;100.00
62150;BME280;48134;53.586;10.610;2022-08-21T00:32:06;101003.47;;;13.99;100.00
62150;BME280;48134;53.586;10.610;2022-08-21T00:34:39;101007.03;;;13.99;100.00
62150;BME280;48134;53.586;10.610;2022-08-21T00:37:17;101004.81;;;14.01;100.00
62150;BME280;48134;53.586;10.610;2022-08-21T00:39:50;100998.22;;;14.02;100.00
62150;BME280;48134;53.586;10.610;2022-08-21T00:42:25;100997.78;;;13.95;100.00
62150;BME280;48134;53.586;10.610;2022-08-21T00:44:59;100992.69;;;14.07;100.00
62150;BME280;48134;53.586;10.610;2022-08-21T00:47:27;100988.31;;;14.06;100.00
62150;BME280;48134;53.586;10.610;2022-08-21T00:50:00;100996.16;;;14.13;100.00
62150;BME280;48134;53.586;10.610;2022-08-21T00:52:37;100993.72;;;14.11;100.00
62150;BME280;48134;53.586;10.610;2022-08-21T00:55:11;100978.47;;;14.05;100.00
62150;BME280;48134;53.586;10.610;2022-08-21T00:57:47;100989.00;;;14.17;100.00
62150;BME280;48134;53.586;10.610;2022-08-21T01:00:22;100991.78;;;14.12;100.00
62150;BME280;48134;53.586;10.610;2022-08-21T01:02:51;100986.75;;;14.00;100.00
62150;BME280;48134;53.586;10.610;2022-08-21T01:05:19;100991.78;;;13.93;100.00
62150;BME280;48134;53.586;10.610;2022-08-21T01:07:54;100989.41;;;13.86;100.00
62150;BME280;48134;53.586;10.610;2022-08-21T01:10:29;100989.09;;;13.88;100.00
62150;BME280;48134;53.586;10.610;2022-08-21T01:13:03;100989.09;;;13.88;100.00
62150;BME280;48134;53.586;10.610;2022-08-21T01:15:42;100995.91;;;13.90;100.00
62150;BME280;48134;53.586;10.610;2022-08-21T01:18:16;100977.28;;;13.73;100.00
62150;BME280;48134;53.586;10.610;2022-08-21T01:21:01;100985.81;;;13.91;100.00
62150;BME280;48134;53.586;10.610;2022-08-21T01:23:35;100990.44;;;13.90;100.00
62150;BME280;48134;53.586;10.610;2022-08-21T01:26:10;100984.41;;;13.93;100.00
62150;BME280;48134;53.586;10.610;2022-08-21T01:28:46;100989.47;;;14.00;100.00
62150;BME280;48134;53.586;10.610;2022-08-21T01:31:24;100995.78;;;14.01;100.00
62150;BME280;48134;53.586;10.610;2022-08-21T01:33:57;100990.03;;;14.02;100.00
62150;BME280;48134;53.586;10.610;2022-08-21T01:36:27;100985.66;;;14.01;100.00
62150;BME280;48134;53.586;10.610;2022-08-21T01:39:00;100994.38;;;14.03;100.00
62150;BME280;48134;53.586;10.610;2022-08-21T01:41:34;100997.53;;;13.72;100.00
62150;BME280;48134;53.586;10.610;2022-08-21T01:44:07;101003.31;;;13.47;100.00
62150;BME280;48134;53.586;10.610;2022-08-21T01:46:40;100988.91;;;13.60;100.00
62150;BME280;48134;53.586;10.610;2022-08-21T01:49:14;101001.50;;;13.61;100.00
62150;BME280;48134;53.586;10.610;2022-08-21T01:51:53;100996.84;;;13.61;100.00
62150;BME280;48134;53.586;10.610;2022-08-21T01:54:29;100995.22;;;13.36;100.00
62150;BME280;48134;53.586;10.610;2022-08-21T01:57:03;101000.06;;;13.44;100.00
62150;BME280;48134;53.586;10.610;2022-08-21T01:59:36;100997.22;;;13.55;100.00
62150;BME280;48134;53.586;10.610;2022-08-21T02:02:09;100993.34;;;13.56;100.00
62150;BME280;48134;53.586;10.610;2022-08-21T02:04:45;100993.44;;;13.51;100.00
62150;BME280;48134;53.586;10.610;2022-08-21T02:07:19;101006.06;;;13.47;100.00
62150;BME280;48134;53.586;10.610;2022-08-21T02:09:53;101002.94;;;13.29;100.00
62150;BME280;48134;53.586;10.610;2022-08-21T02:12:26;100996.94;;;13.27;100.00
62150;BME280;48134;53.586;10.610;2022-08-21T02:14:59;100997.09;;;13.41;100.00
62150;BME280;48134;53.586;10.610;2022-08-21T02:17:38;101005.41;;;13.25;100.00
62150;BME280;48134;53.586;10.610;2022-08-21T02:20:16;100999.66;;;13.27;100.00
62150;BME280;48134;53.586;10.610;2022-08-21T02:22:51;101005.50;;;13.20;100.00
62150;BME280;48134;53.586;10.610;2022-08-21T02:25:26;100998.69;;;13.18;100.00
62150;BME280;48134;53.586;10.610;2022-08-21T02:28:03;101000.94;;;13.10;100.00
62150;BME280;48134;53.586;10.610;2022-08-21T02:30:41;100993.03;;;13.09;100.00
62150;BME280;48134;53.586;10.610;2022-08-21T02:33:15;100996.66;;;12.99;100.00
62150;BME280;48134;53.586;10.610;2022-08-21T02:35:48;100964.09;;;12.79;100.00
62150;BME280;48134;53.586;10.610;2022-08-21T02:38:25;100991.03;;;12.90;100.00
62150;BME280;48134;53.586;10.610;2022-08-21T02:40:59;100961.97;;;12.70;100.00
62150;BME280;48134;53.586;10.610;2022-08-21T02:43:33;100978.47;;;12.89;100.00
62150;BME280;48134;53.586;10.610;2022-08-21T02:46:08;100977.63;;;12.94;100.00
62150;BME280;48134;53.586;10.610;2022-08-21T02:48:42;100977.22;;;13.06;100.00
62150;BME280;48134;53.586;10.610;2022-08-21T02:51:17;100966.75;;;13.13;100.00
62150;BME280;48134;53.586;10.610;2022-08-21T02:53:51;100974.09;;;13.18;100.00
62150;BME280;48134;53.586;10.610;2022-08-21T02:56:24;100970.06;;;13.10;100.00
62150;BME280;48134;53.586;10.610;2022-08-21T02:58:57;100968.50;;;13.04;100.00
62150;BME280;48134;53.586;10.610;2022-08-21T03:01:31;100955.63;;;12.80;100.00
62150;BME280;48134;53.586;10.610;2022-08-21T03:04:04;100960.88;;;12.71;100.00
62150;BME280;48134;53.586;10.610;2022-08-21T03:06:38;100981.53;;;12.53;100.00
62150;BME280;48134;53.586;10.610;2022-08-21T03:09:12;100980.31;;;12.65;100.00
62150;BME280;48134;53.586;10.610;2022-08-21T03:11:45;100982.09;;;12.80;100.00
62150;BME280;48134;53.586;10.610;2022-08-21T03:14:19;100987.88;;;12.78;100.00
62150;BME280;48134;53.586;10.610;2022-08-21T03:16:52;100974.69;;;12.85;100.00
62150;BME280;48134;53.586;10.610;2022-08-21T03:19:25;100979.66;;;12.78;100.00
62150;BME280;48134;53.586;10.610;2022-08-21T03:21:58;100968.03;;;12.67;100.00
62150;BME280;48134;53.586;10.610;2022-08-21T03:24:33;100972.97;;;12.65;100.00
62150;BME280;48134;53.586;10.610;2022-08-21T03:27:06;100974.09;;;12.59;100.00
62150;BME280;48134;53.586;10.610;2022-08-21T03:29:39;100977.88;;;12.63;100.00
62150;BME280;48134;53.586;10.610;2022-08-21T03:32:07;100979.50;;;12.69;100.00
62150;BME280;48134;53.586;10.610;2022-08-21T03:34:41;100984.66;;;12.71;100.00
62150;BME280;48134;53.586;10.610;2022-08-21T03:37:15;100983.03;;;12.70;100.00
62150;BME280;48134;53.586;10.610;2022-08-21T03:39:45;100979.81;;;12.63;100.00
62150;BME280;48134;53.586;10.610;2022-08-21T03:42:13;100954.81;;;12.50;100.00
62150;BME280;48134;53.586;10.610;2022-08-21T03:44:47;100980.75;;;12.48;100.00
62150;BME280;48134;53.586;10.610;2022-08-21T03:47:20;100979.88;;;12.52;100.00
62150;BME280;48134;53.586;10.610;2022-08-21T03:49:53;100978.47;;;12.60;100.00
62150;BME280;48134;53.586;10.610;2022-08-21T03:52:27;100982.00;;;12.61;100.00
62150;BME280;48134;53.586;10.610;2022-08-21T03:55:02;100987.47;;;12.61;100.00
62150;BME280;48134;53.586;10.610;2022-08-21T03:57:35;100982.06;;;12.55;100.00
62150;BME280;48134;53.586;10.610;2022-08-21T04:00:10;100980.28;;;12.70;100.00
62150;BME280;48134;53.586;10.610;2022-08-21T04:02:45;100972.69;;;12.67;100.00
62150;BME280;48134;53.586;10.610;2022-08-21T04:05:15;100973.75;;;12.71;100.00
62150;BME280;48134;53.586;10.610;2022-08-21T04:07:55;100974.56;;;12.66;100.00
62150;BME280;48134;53.586;10.610;2022-08-21T04:10:32;100975.38;;;12.72;100.00
62150;BME280;48134;53.586;10.610;2022-08-21T04:13:07;100978.31;;;12.75;100.00
62150;BME280;48134;53.586;10.610;2022-08-21T04:15:40;100989.56;;;12.69;100.00
62150;BME280;48134;53.586;10.610;2022-08-21T04:18:09;100984.03;;;12.79;100.00
62150;BME280;48134;53.586;10.610;2022-08-21T04:20:44;100981.69;;;12.67;100.00
62150;BME280;48134;53.586;10.610;2022-08-21T04:23:19;100979.41;;;12.74;100.00
62150;BME280;48134;53.586;10.610;2022-08-21T04:25:54;100980.00;;;12.71;100.00
62150;BME280;48134;53.586;10.610;2022-08-21T04:28:28;100984.22;;;12.88;100.00
62150;BME280;48134;53.586;10.610;2022-08-21T04:31:02;100983.88;;;12.95;100.00
62150;BME280;48134;53.586;10.610;2022-08-21T04:33:35;100978.88;;;12.78;100.00
62150;BME280;48134;53.586;10.610;2022-08-21T04:36:09;100990.84;;;12.82;100.00
62150;BME280;48134;53.586;10.610;2022-08-21T04:38:42;100985.28;;;12.92;100.00
62150;BME280;48134;53.586;10.610;2022-08-21T04:41:17;100990.41;;;12.99;100.00
62150;BME280;48134;53.586;10.610;2022-08-21T04:43:50;100989.00;;;13.01;100.00
62150;BME280;48134;53.586;10.610;2022-08-21T04:46:24;100993.19;;;12.93;100.00
62150;BME280;48134;53.586;10.610;2022-08-21T04:48:57;100992.81;;;12.76;100.00
62150;BME280;48134;53.586;10.610;2022-08-21T04:51:27;100997.09;;;12.53;100.00
62150;BME280;48134;53.586;10.610;2022-08-21T04:54:07;101000.50;;;12.34;100.00
62150;BME280;48134;53.586;10.610;2022-08-21T04:56:40;101002.69;;;12.32;100.00
62150;BME280;48134;53.586;10.610;2022-08-21T04:59:17;100998.78;;;12.44;100.00
62150;BME280;48134;53.586;10.610;2022-08-21T05:01:52;101001.34;;;12.69;100.00
62150;BME280;48134;53.586;10.610;2022-08-21T05:04:30;101003.22;;;12.69;100.00
62150;BME280;48134;53.586;10.610;2022-08-21T05:07:09;101003.44;;;12.78;100.00
62150;BME280;48134;53.586;10.610;2022-08-21T05:09:38;101005.63;;;13.05;100.00
62150;BME280;48134;53.586;10.610;2022-08-21T05:12:13;101003.97;;;13.38;100.00
62150;BME280;48134;53.586;10.610;2022-08-21T05:14:46;100998.50;;;13.38;100.00
62150;BME280;48134;53.586;10.610;2022-08-21T05:17:19;101006.34;;;13.45;100.00
62150;BME280;48134;53.586;10.610;2022-08-21T05:19:53;101002.03;;;13.82;100.00
62150;BME280;48134;53.586;10.610;2022-08-21T05:22:26;101006.69;;;14.06;100.00
62150;BME280;48134;53.586;10.610;2022-08-21T05:25:00;101002.59;;;14.03;100.00
62150;BME280;48134;53.586;10.610;2022-08-21T05:27:34;100998.88;;;13.94;100.00
62150;BME280;48134;53.586;10.610;2022-08-21T05:30:09;101001.25;;;14.01;100.00
62150;BME280;48134;53.586;10.610;2022-08-21T05:32:42;101008.56;;;14.05;100.00
62150;BME280;48134;53.586;10.610;2022-08-21T05:35:10;101004.00;;;14.01;100.00
62150;BME280;48134;53.586;10.610;2022-08-21T05:37:44;101001.47;;;14.04;100.00
62150;BME280;48134;53.586;10.610;2022-08-21T05:40:17;101010.59;;;14.19;100.00
62150;BME280;48134;53.586;10.610;2022-08-21T05:42:53;100998.31;;;14.16;100.00
62150;BME280;48134;53.586;10.610;2022-08-21T05:45:30;101001.47;;;14.23;100.00
62150;BME280;48134;53.586;10.610;2022-08-21T05:48:06;101004.94;;;14.29;100.00
62150;BME280;48134;53.586;10.610;2022-08-21T05:50:40;101001.22;;;14.39;100.00
62150;BME280;48134;53.586;10.610;2022-08-21T05:53:15;101011.31;;;14.43;100.00
62150;BME280;48134;53.586;10.610;2022-08-21T05:55:49;101012.16;;;14.58;100.00
62150;BME280;48134;53.586;10.610;2022-08-21T05:58:23;101015.09;;;14.67;100.00
62150;BME280;48134;53.586;10.610;2022-08-21T06:00:57;101003.75;;;14.87;100.00
62150;BME280;48134;53.586;10.610;2022-08-21T06:03:33;101005.66;;;15.20;100.00
62150;BME280;48134;53.586;10.610;2022-08-21T06:06:07;101016.31;;;15.49;100.00
62150;BME280;48134;53.586;10.610;2022-08-21T06:08:40;101008.59;;;15.65;100.00
62150;BME280;48134;53.586;10.610;2022-08-21T06:11:13;101011.56;;;15.96;100.00
62150;BME280;48134;53.586;10.610;2022-08-21T06:13:48;101008.66;;;16.02;100.00
62150;BME280;48134;53.586;10.610;2022-08-21T06:16:21;101014.00;;;16.21;100.00
62150;BME280;48134;53.586;10.610;2022-08-21T06:18:54;101015.28;;;16.37;100.00
62150;BME280;48134;53.586;10.610;2022-08-21T06:21:27;101007.25;;;16.41;100.00
62150;BME280;48134;53.586;10.610;2022-08-21T06:24:00;101011.00;;;16.45;100.00
62150;BME280;48134;53.586;10.610;2022-08-21T06:26:33;101015.34;;;16.69;100.00
62150;BME280;48134;53.586;10.610;2022-08-21T06:29:08;101006.34;;;16.77;100.00
62150;BME280;48134;53.586;10.610;2022-08-21T06:31:43;100998.38;;;16.89;100.00
62150;BME280;48134;53.586;10.610;2022-08-21T06:34:11;101002.34;;;16.83;100.00
62150;BME280;48134;53.586;10.610;2022-08-21T06:36:44;100996.44;;;16.90;100.00
62150;BME280;48134;53.586;10.610;2022-08-21T06:39:12;101007.53;;;17.07;100.00
62150;BME280;48134;53.586;10.610;2022-08-21T06:41:47;100994.88;;;16.97;100.00
62150;BME280;48134;53.586;10.610;2022-08-21T06:44:29;100995.09;;;17.10;100.00
62150;BME280;48134;53.586;10.610;2022-08-21T06:47:03;100989.59;;;16.87;100.00
62150;BME280;48134;53.586;10.610;2022-08-21T06:49:37;101005.22;;;17.00;100.00
62150;BME280;48134;53.586;10.610;2022-08-21T06:52:11;100995.09;;;17.10;100.00
62150;BME280;48134;53.586;10.610;2022-08-21T06:54:44;100983.59;;;17.08;100.00
62150;BME280;48134;53.586;10.610;2022-08-21T06:57:17;100982.94;;;17.11;100.00
62150;BME280;48134;53.586;10.610;2022-08-21T06:59:52;100975.75;;;17.32;100.00
62150;BME280;48134;53.586;10.610;2022-08-21T07:02:20;100977.53;;;17.28;100.00
62150;BME280;48134;53.586;10.610;2022-08-21T07:04:53;100979.16;;;17.29;100.00
62150;BME280;48134;53.586;10.610;2022-08-21T07:07:26;100972.25;;;17.49;100.00
62150;BME280;48134;53.586;10.610;2022-08-21T07:09:59;100966.13;;;17.53;100.00
62150;BME280;48134;53.586;10.610;2022-08-21T07:12:32;100966.97;;;17.71;100.00
62150;BME280;48134;53.586;10.610;2022-08-21T07:15:08;100960.00;;;17.82;100.00
62150;BME280;48134;53.586;10.610;2022-08-21T07:17:36;100962.47;;;17.92;100.00
62150;BME280;48134;53.586;10.610;2022-08-21T07:20:05;100959.88;;;17.96;100.00
62150;BME280;48134;53.586;10.610;2022-08-21T07:22:40;100963.56;;;17.82;100.00
62150;BME280;48134;53.586;10.610;2022-08-21T07:25:13;100965.94;;;17.49;100.00
62150;BME280;48134;53.586;10.610;2022-08-21T07:27:46;100961.75;;;17.51;100.00
62150;BME280;48134;53.586;10.610;2022-08-21T07:30:21;100962.56;;;17.61;100.00
62150;BME280;48134;53.586;10.610;2022-08-21T07:32:51;100961.88;;;17.55;100.00
62150;BME280;48134;53.586;10.610;2022-08-21T07:35:25;100967.91;;;17.57;100.00
62150;BME280;48134;53.586;10.610;2022-08-21T07:37:59;100953.63;;;17.55;100.00
62150;BME280;48134;53.586;10.610;2022-08-21T07:40:33;100967.63;;;17.85;100.00
62150;BME280;48134;53.586;10.610;2022-08-21T07:43:06;100964.09;;;17.93;100.00
62150;BME280;48134;53.586;10.610;2022-08-21T07:45:41;100957.47;;;18.12;100.00
62150;BME280;48134;53.586;10.610;2022-08-21T07:48:15;100955.53;;;18.30;100.00
62150;BME280;48134;53.586;10.610;2022-08-21T07:50:49;100957.75;;;18.45;100.00
62150;BME280;48134;53.586;10.610;2022-08-21T07:53:17;100939.94;;;18.43;100.00
62150;BME280;48134;53.586;10.610;2022-08-21T07:55:51;100930.03;;;18.42;100.00
62150;BME280;48134;53.586;10.610;2022-08-21T07:58:24;100956.13;;;18.62;100.00
62150;BME280;48134;53.586;10.610;2022-08-21T08:00:59;100949.56;;;18.75;100.00
62150;BME280;48134;53.586;10.610;2022-08-21T08:03:33;100946.97;;;18.88;100.00
62150;BME280;48134;53.586;10.610;2022-08-21T08:06:01;100946.13;;;19.05;100.00
62150;BME280;48134;53.586;10.610;2022-08-21T08:08:36;100946.91;;;19.05;100.00
62150;BME280;48134;53.586;10.610;2022-08-21T08:11:10;100931.81;;;19.11;100.00
62150;BME280;48134;53.586;10.610;2022-08-21T08:13:45;100924.47;;;19.15;100.00
62150;BME280;48134;53.586;10.610;2022-08-21T08:16:21;100940.75;;;19.38;100.00
62150;BME280;48134;53.586;10.610;2022-08-21T08:18:54;100940.97;;;19.54;100.00
62150;BME280;48134;53.586;10.610;2022-08-21T08:21:27;100946.03;;;19.52;100.00
62150;BME280;48134;53.586;10.610;2022-08-21T08:24:00;100930.03;;;19.36;100.00
62150;BME280;48134;53.586;10.610;2022-08-21T08:26:33;100936.38;;;19.58;100.00
62150;BME280;48134;53.586;10.610;2022-08-21T08:29:01;100939.75;;;19.43;100.00
62150;BME280;48134;53.586;10.610;2022-08-21T08:31:36;100938.09;;;19.50;100.00
62150;BME280;48134;53.586;10.610;2022-08-21T08:34:09;100936.88;;;19.60;100.00
62150;BME280;48134;53.586;10.610;2022-08-21T08:36:42;100939.69;;;19.81;100.00
62150;BME280;48134;53.586;10.610;2022-08-21T08:39:15;100940.84;;;19.71;100.00
62150;BME280;48134;53.586;10.610;2022-08-21T08:41:49;100939.72;;;19.73;100.00
62150;BME280;48134;53.586;10.610;2022-08-21T08:44:24;100939.19;;;19.79;100.00
62150;BME280;48134;53.586;10.610;2022-08-21T08:46:55;100938.13;;;19.93;100.00
62150;BME280;48134;53.586;10.610;2022-08-21T08:49:32;100943.59;;;20.01;100.00
62150;BME280;48134;53.586;10.610;2022-08-21T08:52:15;100930.72;;;20.05;100.00
62150;BME280;48134;53.586;10.610;2022-08-21T08:54:57;100931.13;;;20.16;100.00
62150;BME280;48134;53.586;10.610;2022-08-21T08:57:35;100926.44;;;20.29;100.00
62150;BME280;48134;53.586;10.610;2022-08-21T09:00:08;100923.91;;;20.36;100.00
62150;BME280;48134;53.586;10.610;2022-08-21T09:02:45;100923.38;;;20.43;100.00
62150;BME280;48134;53.586;10.610;2022-08-21T09:05:22;100922.19;;;20.32;100.00
62150;BME280;48134;53.586;10.610;2022-08-21T09:08:14;100918.28;;;20.45;100.00
62150;BME280;48134;53.586;10.610;2022-08-21T09:10:48;100911.88;;;20.53;100.00
62150;BME280;48134;53.586;10.610;2022-08-21T09:13:39;100903.34;;;20.59;100.00
62150;BME280;48134;53.586;10.610;2022-08-21T09:16:20;100898.03;;;20.53;100.00
62150;BME280;48134;53.586;10.610;2022-08-21T09:19:01;100897.25;;;20.65;100.00
62150;BME280;48134;53.586;10.610;2022-08-21T09:21:46;100897.53;;;20.85;100.00
62150;BME280;48134;53.586;10.610;2022-08-21T09:24:29;100892.16;;;21.01;100.00
62150;BME280;48134;53.586;10.610;2022-08-21T09:27:04;100903.44;;;20.96;100.00
62150;BME280;48134;53.586;10.610;2022-08-21T09:29:41;100896.63;;;21.05;100.00
62150;BME280;48134;53.586;10.610;2022-08-21T09:32:17;100896.41;;;21.11;100.00
62150;BME280;48134;53.586;10.610;2022-08-21T09:34:58;100891.66;;;21.36;100.00
62150;BME280;48134;53.586;10.610;2022-08-21T09:37:28;100899.88;;;21.20;100.00
62150;BME280;48134;53.586;10.610;2022-08-21T09:40:13;100898.03;;;21.24;100.00
62150;BME280;48134;53.586;10.610;2022-08-21T09:42:54;100895.69;;;21.38;100.00
62150;BME280;48134;53.586;10.610;2022-08-21T09:45:28;100893.13;;;21.58;99.33
62150;BME280;48134;53.586;10.610;2022-08-21T09:48:11;100886.84;;;21.73;100.00
62150;BME280;48134;53.586;10.610;2022-08-21T09:50:47;100890.13;;;21.63;100.00
62150;BME280;48134;53.586;10.610;2022-08-21T09:53:18;100885.47;;;21.80;100.00
62150;BME280;48134;53.586;10.610;2022-08-21T09:55:49;100884.31;;;21.81;100.00
62150;BME280;48134;53.586;10.610;2022-08-21T09:58:42;100884.69;;;22.36;100.00
62150;BME280;48134;53.586;10.610;2022-08-21T10:01:15;100880.34;;;22.38;98.15
62150;BME280;48134;53.586;10.610;2022-08-21T10:03:44;100901.03;;;22.41;100.00
62150;BME280;48134;53.586;10.610;2022-08-21T10:06:25;100891.69;;;22.33;100.00
62150;BME280;48134;53.586;10.610;2022-08-21T10:09:04;100898.69;;;21.99;98.02
62150;BME280;48134;53.586;10.610;2022-08-21T10:11:33;100888.31;;;21.83;100.00
62150;BME280;48134;53.586;10.610;2022-08-21T10:14:12;100884.72;;;21.95;98.89
62150;BME280;48134;53.586;10.610;2022-08-21T10:16:56;100888.69;;;22.10;100.00
62150;BME280;48134;53.586;10.610;2022-08-21T10:19:38;100889.91;;;22.25;100.00
62150;BME280;48134;53.586;10.610;2022-08-21T10:22:23;100884.06;;;22.30;100.00
62150;BME280;48134;53.586;10.610;2022-08-21T10:25:08;100877.50;;;22.06;100.00
62150;BME280;48134;53.586;10.610;2022-08-21T10:27:54;100881.16;;;21.95;100.00
62150;BME280;48134;53.586;10.610;2022-08-21T10:30:36;100865.88;;;22.01;100.00
62150;BME280;48134;53.586;10.610;2022-08-21T10:33:19;100880.88;;;21.71;100.00
62150;BME280;48134;53.586;10.610;2022-08-21T10:35:59;100875.53;;;21.79;100.00
62150;BME280;48134;53.586;10.610;2022-08-21T10:38:49;100876.97;;;21.72;100.00
62150;BME280;48134;53.586;10.610;2022-08-21T10:41:39;100873.75;;;21.99;100.00
62150;BME280;48134;53.586;10.610;2022-08-21T10:44:23;100873.56;;;22.07;100.00
62150;BME280;48134;53.586;10.610;2022-08-21T10:47:05;100876.47;;;22.11;99.49
62150;BME280;48134;53.586;10.610;2022-08-21T10:49:46;100876.97;;;22.45;100.00
62150;BME280;48134;53.586;10.610;2022-08-21T10:52:36;100852.75;;;22.58;100.00
62150;BME280;48134;53.586;10.610;2022-08-21T10:55:19;100854.31;;;23.07;96.69
62150;BME280;48134;53.586;10.610;2022-08-21T10:57:57;100861.09;;;23.25;100.00
62150;BME280;48134;53.586;10.610;2022-08-21T11:00:30;100859.63;;;23.12;98.97
62150;BME280;48134;53.586;10.610;2022-08-21T11:03:06;100856.28;;;23.22;96.65
62150;BME280;48134;53.586;10.610;2022-08-21T11:05:43;100854.75;;;23.25;100.00
62150;BME280;48134;53.586;10.610;2022-08-21T11:08:24;100858.34;;;23.09;87.93
62150;BME280;48134;53.586;10.610;2022-08-21T11:10:59;100861.06;;;22.74;90.15
62150;BME280;48134;53.586;10.610;2022-08-21T11:13:38;100865.97;;;22.65;96.15
62150;BME280;48134;53.586;10.610;2022-08-21T11:16:18;100860.06;;;22.98;91.85
62150;BME280;48134;53.586;10.610;2022-08-21T11:18:58;100860.13;;;23.18;96.20
62150;BME280;48134;53.586;10.610;2022-08-21T11:21:37;100849.28;;;23.29;89.70
62150;BME280;48134;53.586;10.610;2022-08-21T11:24:24;100862.22;;;23.40;86.47
62150;BME280;48134;53.586;10.610;2022-08-21T11:27:07;100859.25;;;23.14;80.46
62150;BME280;48134;53.586;10.610;2022-08-21T11:29:39;100863.63;;;22.99;86.61
62150;BME280;48134;53.586;10.610;2022-08-21T11:32:39;100870.47;;;22.69;83.44
62150;BME280;48134;53.586;10.610;2022-08-21T11:35:22;100868.56;;;22.57;83.84
62150;BME280;48134;53.586;10.610;2022-08-21T11:38:03;100868.41;;;22.66;86.23
62150;BME280;48134;53.586;10.610;2022-08-21T11:40:49;100873.16;;;22.82;94.48
62150;BME280;48134;53.586;10.610;2022-08-21T11:43:38;100865.69;;;23.18;84.68
62150;BME280;48134;53.586;10.610;2022-08-21T11:46:25;100866.25;;;23.43;96.23
62150;BME280;48134;53.586;10.610;2022-08-21T11:49:06;100864.06;;;23.72;83.77
62150;BME280;48134;53.586;10.610;2022-08-21T11:51:46;100862.16;;;23.76;81.45
62150;BME280;48134;53.586;10.610;2022-08-21T11:54:27;100867.13;;;23.86;81.77
62150;BME280;48134;53.586;10.610;2022-08-21T11:57:04;100862.19;;;23.96;79.46
62150;BME280;48134;53.586;10.610;2022-08-21T11:59:46;100856.78;;;24.26;82.07
62150;BME280;48134;53.586;10.610;2022-08-21T12:02:27;100850.25;;;24.38;71.97
62150;BME280;48134;53.586;10.610;2022-08-21T12:05:04;100856.09;;;24.09;83.81
62150;BME280;48134;53.586;10.610;2022-08-21T12:07:35;100861.00;;;24.16;76.60
62150;BME280;48134;53.586;10.610;2022-08-21T12:10:11;100856.50;;;24.54;74.78
62150;BME280;48134;53.586;10.610;2022-08-21T12:12:45;100850.69;;;24.40;77.97
62150;BME280;48134;53.586;10.610;2022-08-21T12:15:27;100850.38;;;24.45;66.66
62150;BME280;48134;53.586;10.610;2022-08-21T12:18:03;100847.41;;;24.57;67.78
62150;BME280;48134;53.586;10.610;2022-08-21T12:20:43;100853.59;;;24.24;63.63
62150;BME280;48134;53.586;10.610;2022-08-21T12:23:19;100852.31;;;23.98;67.26
62150;BME280;48134;53.586;10.610;2022-08-21T12:26:24;100856.53;;;23.53;71.54
62150;BME280;48134;53.586;10.610;2022-08-21T12:29:05;100856.50;;;23.88;77.69
62150;BME280;48134;53.586;10.610;2022-08-21T12:31:54;100849.56;;;24.21;69.35
62150;BME280;48134;53.586;10.610;2022-08-21T12:34:27;100844.56;;;24.07;71.78
62150;BME280;48134;53.586;10.610;2022-08-21T12:37:05;100853.47;;;23.97;66.60
62150;BME280;48134;53.586;10.610;2022-08-21T12:39:38;100830.78;;;24.15;64.88
62150;BME280;48134;53.586;10.610;2022-08-21T12:42:15;100845.06;;;24.36;67.53
62150;BME280;48134;53.586;10.610;2022-08-21T12:44:53;100853.09;;;24.41;62.17
62150;BME280;48134;53.586;10.610;2022-08-21T12:47:31;100847.72;;;24.29;60.27
62150;BME280;48134;53.586;10.610;2022-08-21T12:50:08;100840.03;;;24.65;77.65
62150;BME280;48134;53.586;10.610;2022-08-21T12:52:45;100846.81;;;24.68;68.32
62150;BME280;48134;53.586;10.610;2022-08-21T12:55:26;100862.78;;;24.05;74.74
62150;BME280;48134;53.586;10.610;2022-08-21T12:57:55;100853.84;;;24.38;65.95
62150;BME280;48134;53.586;10.610;2022-08-21T13:00:29;100853.66;;;24.51;58.92
62150;BME280;48134;53.586;10.610;2022-08-21T13:03:04;100848.69;;;24.87;56.55
62150;BME280;48134;53.586;10.610;2022-08-21T13:05:37;100850.09;;;24.50;66.35
62150;BME280;48134;53.586;10.610;2022-08-21T13:08:07;100846.16;;;24.08;60.06
62150;BME280;48134;53.586;10.610;2022-08-21T13:10:43;100852.00;;;23.64;60.89
62150;BME280;48134;53.586;10.610;2022-08-21T13:13:19;100844.91;;;23.86;61.17
62150;BME280;48134;53.586;10.610;2022-08-21T13:15:57;100829.38;;;24.24;63.75